EPMO

Details ICAO EPMO (WMI)
Name MODLIN
Region Poland
Timezone Europe/Warsaw (UTC+1.0)
Plans Departing 119
Arriving 114
Stats Elevation 341 ft / 104 m (AMSL)
Location 52.451110° 20.651778°
Runways 1
Magnetic Variation 5.767° E
Sunrise 2017-12-16 06:43:42 UTC / 2017-12-16 07:43:42 Local
Sunset 2017-12-16 14:25:03 UTC / 2017-12-16 15:25:03 Local
Advertisement - Login to hide

Runways

ID Width Length Bearing (true) Bearing (mag) Surface Threshold Offset Overrun Length
08 197 ft / 60 m 8,188 ft / 2,496 m 81.96° 76.19° Asphalt 0 ft / 0 m 0 ft / 0 m
26 197 ft / 60 m 8,188 ft / 2,496 m 261.99° 256.22° Asphalt 0 ft / 0 m 0 ft / 0 m

Map

Weather


0- 5 10 15 20 25 30 35+ Temperature / ° C

Clouds and Precipitation
Forecast for 2017-12-16 18:00 UTC. Updated an hour ago

Ground ~20,000 ft ~40,000 ft Winds

METAR

EPMO 161830Z 22007KT 6000 FEW009 BKN020 01/00 Q1007

TAF

TAF AMD EPMO 161837Z 1618/1718 23007KT 6000 BKN020 BECMG 1619/1621 BKN010 TEMPO 1619/1709 4000 BR BKN006 PROB40 TEMPO 1621/1709 2000 -SN -SNRA BR BKN003 BECMG 1708/1710 SCT020 BECMG 1716/1718 2000 BR

Frequencies

Tower 124.50 MHz INFO
Warning: Do not use this data for real-world aviation or navigation. No guarantee of current accuracy is given.